Time;durP1;ratioP1;P1;durP2;ratioP2;P2;SDS_P1;SDS_P2;PMS_P1;PMS_P2;Temp;Humidity;BMP_temperature;BMP_pressure;BME280_temperature;BME280_humidity;BME280_pressure;Samples;Min_cycle;Max_cycle;Signal;HPM_P1;HPM_P2
2023/05/08 00:00:34;;;;;;;0.40;0.40;;;;;;;8.02;45.17;101907.44;5007161;28;20056;-63
2023/05/08 00:02:59;;;;;;;0.60;0.60;;;;;;;7.96;45.25;101902.06;5006737;28;20014;-62
2023/05/08 00:05:24;;;;;;;0.50;0.50;;;;;;;7.89;45.30;101901.91;5006771;28;20129;-63
2023/05/08 00:07:51;;;;;;;0.40;0.40;;;;;;;7.91;45.21;101909.69;5006683;28;20177;-63
2023/05/08 00:10:16;;;;;;;0.50;0.50;;;;;;;7.81;45.24;101904.28;5006945;28;20030;-64
2023/05/08 00:12:42;;;;;;;1.25;1.25;;;;;;;7.82;45.47;101910.34;5006710;28;20048;-63
2023/05/08 00:15:08;;;;;;;0.40;0.40;;;;;;;7.77;45.23;101897.28;5006947;28;20074;-63
2023/05/08 00:17:33;;;;;;;0.40;0.40;;;;;;;7.88;45.26;101914.78;5006510;28;20022;-63
2023/05/08 00:19:59;;;;;;;0.40;0.40;;;;;;;7.80;45.05;101912.00;5006530;28;20026;-62
2023/05/08 00:22:24;;;;;;;0.60;0.60;;;;;;;7.86;45.09;101912.16;4988800;28;20025;-63
2023/05/08 00:24:50;;;;;;;0.40;0.40;;;;;;;7.76;44.91;101915.34;5006489;28;20033;-64
2023/05/08 00:27:15;;;;;;;0.40;0.40;;;;;;;7.68;45.14;101915.97;5006195;28;20101;-63
2023/05/08 00:29:41;;;;;;;0.40;0.40;;;;;;;7.62;45.15;101915.81;5006779;28;20080;-62
2023/05/08 00:32:07;;;;;;;1.92;1.83;;;;;;;7.63;44.94;101915.00;5006174;28;20117;-63
2023/05/08 00:34:33;;;;;;;6.28;2.17;;;;;;;7.54;45.14;101907.00;5006537;28;20026;-63
2023/05/08 00:36:59;;;;;;;0.75;0.75;;;;;;;7.50;45.23;101918.94;5006375;28;20026;-65
2023/05/08 00:39:24;;;;;;;0.40;0.40;;;;;;;7.45;45.23;101899.84;5006301;28;20041;-64
2023/05/08 00:41:50;;;;;;;0.40;0.40;;;;;;;7.35;45.52;101914.19;5006214;28;20492;-64
2023/05/08 00:44:15;;;;;;;0.40;0.40;;;;;;;7.28;45.63;101913.16;5005933;28;20027;-64
2023/05/08 00:46:41;;;;;;;0.40;0.40;;;;;;;7.25;45.64;101918.19;5006369;28;20027;-63
2023/05/08 00:49:10;;;;;;;0.50;0.50;;;;;;;7.26;45.86;101919.09;5005810;28;20018;-63
2023/05/08 00:51:36;;;;;;;0.40;0.40;;;;;;;7.20;46.01;101919.78;4988300;28;20076;-63
2023/05/08 00:54:02;;;;;;;0.40;0.40;;;;;;;7.17;46.25;101917.13;5005800;28;20022;-63
2023/05/08 00:56:29;;;;;;;0.40;0.40;;;;;;;7.14;46.57;101919.63;5005899;28;20046;-63
2023/05/08 00:58:55;;;;;;;1.10;1.10;;;;;;;7.07;46.58;101926.28;5005785;28;20097;-64
2023/05/08 01:01:21;;;;;;;0.40;0.40;;;;;;;7.01;46.74;101928.69;5006047;28;20033;-63
2023/05/08 01:03:47;;;;;;;0.40;0.40;;;;;;;7.01;46.62;101926.09;5005831;28;20085;-64
2023/05/08 01:06:12;;;;;;;0.50;0.50;;;;;;;6.93;46.53;101926.72;5006050;28;20042;-64
2023/05/08 01:08:38;;;;;;;0.40;0.40;;;;;;;6.87;46.68;101923.94;5005977;28;20105;-63
2023/05/08 01:11:03;;;;;;;0.40;0.40;;;;;;;6.93;46.40;101926.72;5005798;28;20081;-65
2023/05/08 01:13:51;;;;;;;0.40;0.40;;;;;;;6.89;46.34;101932.63;5005840;28;20025;-64
2023/05/08 01:16:25;;;;;;;0.40;0.40;;;;;;;6.86;46.57;101929.06;4988451;28;20027;-63
2023/05/08 01:19:20;;;;;;;0.50;0.50;;;;;;;6.87;46.95;101928.25;5005607;28;20038;-64
2023/05/08 01:21:57;;;;;;;0.40;0.40;;;;;;;6.83;46.63;101924.69;4948572;28;20042;-64
2023/05/08 01:24:59;;;;;;;0.85;0.85;;;;;;;6.83;46.67;101935.03;5005555;28;20022;-63
2023/05/08 01:27:31;;;;;;;0.47;0.47;;;;;;;6.89;46.39;101929.16;5005325;28;20070;-64
2023/05/08 01:30:10;;;;;;;0.40;0.40;;;;;;;6.88;46.29;101936.06;5005371;28;20026;-64
2023/05/08 01:32:41;;;;;;;0.40;0.40;;;;;;;6.89;45.67;101930.06;5005100;28;20027;-64
2023/05/08 01:35:25;;;;;;;0.40;0.40;;;;;;;6.96;45.38;101938.88;5005387;28;20026;-65
2023/05/08 01:38:07;;;;;;;0.40;0.40;;;;;;;7.04;45.01;101940.00;5005397;28;20022;-65
2023/05/08 01:40:44;;;;;;;0.93;0.90;;;;;;;7.02;44.82;101948.50;5005477;28;20104;-64
2023/05/08 01:43:15;;;;;;;0.40;0.40;;;;;;;6.95;44.93;101944.84;5005145;28;20097;-64
2023/05/08 01:45:45;;;;;;;0.50;0.50;;;;;;;7.04;44.72;101946.84;5005111;28;20038;-63
2023/05/08 01:48:17;;;;;;;0.40;0.40;;;;;;;6.98;45.13;101950.09;5005167;28;20427;-64
2023/05/08 01:50:48;;;;;;;0.50;0.50;;;;;;;6.94;45.24;101949.16;5005236;28;20022;-64
2023/05/08 01:53:23;;;;;;;0.50;0.50;;;;;;;6.82;45.22;101946.19;5004853;28;20034;-63
2023/05/08 01:55:52;;;;;;;0.40;0.40;;;;;;;6.93;45.13;101957.72;5005114;28;20024;-63
2023/05/08 01:58:19;;;;;;;0.43;0.43;;;;;;;6.88;45.13;101946.38;5004762;28;20026;-63
2023/05/08 02:00:46;;;;;;;0.55;0.55;;;;;;;6.92;44.86;101955.06;5004910;28;20022;-63
2023/05/08 02:03:14;;;;;;;0.40;0.40;;;;;;;7.02;44.84;101958.84;5004742;28;20018;-64
2023/05/08 02:05:41;;;;;;;0.40;0.40;;;;;;;6.88;45.00;101954.13;5004357;28;20045;-64
2023/05/08 02:08:09;;;;;;;0.40;0.40;;;;;;;6.76;45.14;101939.09;5004800;28;20549;-63
2023/05/08 02:10:36;;;;;;;0.50;0.50;;;;;;;6.64;45.37;101943.88;5004758;28;20027;-64
2023/05/08 02:13:03;;;;;;;0.50;0.50;;;;;;;6.68;45.38;101950.88;5004654;28;20023;-63
2023/05/08 02:15:34;;;;;;;0.40;0.40;;;;;;;6.59;45.56;101951.47;5004773;28;20030;-64
2023/05/08 02:18:02;;;;;;;0.50;0.50;;;;;;;6.46;45.72;101952.75;5004581;28;20041;-64
2023/05/08 02:20:29;;;;;;;0.40;0.40;;;;;;;6.45;45.72;101944.13;5004637;28;20030;-64
2023/05/08 02:22:55;;;;;;;0.40;0.40;;;;;;;6.49;45.73;101959.72;5004527;28;20108;-63
2023/05/08 02:25:21;;;;;;;0.40;0.40;;;;;;;6.48;45.72;101953.69;5004529;28;20109;-63
2023/05/08 02:27:49;;;;;;;0.50;0.50;;;;;;;6.45;45.83;101951.88;5004201;28;20057;-64
2023/05/08 02:30:16;;;;;;;2.15;2.05;;;;;;;6.48;45.72;101958.84;5004544;28;20034;-64
2023/05/08 02:32:47;;;;;;;0.40;0.40;;;;;;;6.54;45.48;101959.06;5004072;28;20048;-63
2023/05/08 02:35:16;;;;;;;0.50;0.50;;;;;;;6.52;45.45;101952.06;5004399;28;20022;-64
2023/05/08 02:37:48;;;;;;;0.40;0.40;;;;;;;6.34;46.07;101953.22;5004579;28;20054;-64
2023/05/08 02:40:15;;;;;;;0.40;0.40;;;;;;;6.28;46.34;101950.41;5004650;28;20030;-63
2023/05/08 02:42:41;;;;;;;0.50;0.50;;;;;;;6.29;46.70;101957.34;5004277;28;20494;-63
2023/05/08 02:45:08;;;;;;;0.40;0.40;;;;;;;6.13;46.93;101953.34;5004252;28;20030;-63
2023/05/08 02:47:56;;;;;;;1.42;1.33;;;;;;;6.27;46.77;101956.41;5003953;28;20048;-63
2023/05/08 02:50:36;;;;;;;0.40;0.40;;;;;;;6.14;47.04;101957.69;5004207;28;20026;-63
2023/05/08 02:53:05;;;;;;;0.60;0.60;;;;;;;5.95;47.34;101959.56;5004313;28;20030;-64
2023/05/08 02:55:59;;;;;;;0.40;0.40;;;;;;;5.95;47.50;101954.41;5004188;28;20101;-64
2023/05/08 02:58:33;;;;;;;0.40;0.40;;;;;;;5.97;47.57;101954.47;5004179;28;20029;-63
2023/05/08 03:01:07;;;;;;;0.40;0.40;;;;;;;6.05;47.36;101947.94;5004254;28;20026;-63
2023/05/08 03:03:39;;;;;;;0.40;0.40;;;;;;;5.88;47.59;101957.63;5004073;28;20029;-63
2023/05/08 03:06:13;;;;;;;0.50;0.50;;;;;;;5.84;47.58;101951.47;5004115;28;20026;-64
2023/05/08 03:08:40;;;;;;;0.40;0.40;;;;;;;5.92;47.41;101946.56;5004141;28;20110;-63
2023/05/08 03:11:18;;;;;;;0.40;0.40;;;;;;;6.00;47.18;101958.06;5004113;28;20047;-63
2023/05/08 03:13:46;;;;;;;6.28;5.88;;;;;;;5.93;46.94;101956.94;5004071;28;20026;-64
2023/05/08 03:16:21;;;;;;;0.82;0.82;;;;;;;5.86;47.02;101944.66;5005193;28;20022;-63
2023/05/08 03:18:54;;;;;;;0.47;0.47;;;;;;;5.98;46.93;101951.94;5007216;28;20030;-63
2023/05/08 03:21:25;;;;;;;0.40;0.40;;;;;;;6.10;46.71;101943.81;5006823;28;20014;-63
2023/05/08 03:23:53;;;;;;;0.40;0.40;;;;;;;6.05;46.77;101938.47;4989196;28;20026;-63
2023/05/08 03:26:18;;;;;;;0.50;0.50;;;;;;;6.13;46.67;101937.88;5007351;28;20023;-63
2023/05/08 03:28:48;;;;;;;0.85;0.85;;;;;;;6.11;46.79;101936.94;5006613;28;20030;-63
2023/05/08 03:31:17;;;;;;;0.50;0.50;;;;;;;6.14;46.97;101940.50;5007615;28;20024;-63
2023/05/08 03:33:44;;;;;;;0.52;0.52;;;;;;;6.32;46.67;101939.41;5007631;28;20026;-64
2023/05/08 03:36:10;;;;;;;0.40;0.40;;;;;;;6.39;46.52;101930.16;5007758;28;20022;-64
2023/05/08 03:38:36;;;;;;;0.60;0.60;;;;;;;6.71;45.54;101937.22;5007633;28;20045;-64
2023/05/08 03:41:02;;;;;;;3.00;2.70;;;;;;;6.80;45.33;101929.75;5007504;28;20018;-65
2023/05/08 03:43:28;;;;;;;0.40;0.40;;;;;;;6.83;45.40;101929.84;5007498;28;20022;-64
2023/05/08 03:45:55;;;;;;;0.50;0.50;;;;;;;7.02;44.97;101931.31;5007481;28;20026;-63
2023/05/08 03:48:21;;;;;;;0.40;0.40;;;;;;;7.04;44.94;101929.66;5007380;28;20084;-63
2023/05/08 03:50:47;;;;;;;0.88;0.88;;;;;;;7.33;44.43;101931.38;5007363;28;20031;-63
2023/05/08 03:53:13;;;;;;;0.40;0.40;;;;;;;7.42;43.89;101921.31;5007269;28;20034;-64
2023/05/08 03:55:40;;;;;;;0.40;0.40;;;;;;;7.67;43.29;101926.28;5007556;28;20018;-64
2023/05/08 03:58:24;;;;;;;0.47;0.47;;;;;;;7.84;42.79;101934.53;5007346;28;20049;-64
2023/05/08 04:01:11;;;;;;;0.40;0.40;;;;;;;7.88;42.89;101927.72;5007115;28;20622;-64
2023/05/08 04:03:49;;;;;;;0.40;0.40;;;;;;;8.15;42.10;101927.59;5007091;28;20057;-64
2023/05/08 04:06:27;;;;;;;0.40;0.40;;;;;;;8.23;41.94;101926.91;4989530;28;20026;-64
2023/05/08 04:09:17;;;;;;;0.40;0.40;;;;;;;8.37;41.85;101925.53;5007032;28;20514;-64
2023/05/08 04:12:08;;;;;;;0.40;0.40;;;;;;;8.49;41.34;101931.88;5006897;28;20086;-64
2023/05/08 04:14:42;;;;;;;0.40;0.40;;;;;;;8.74;40.70;101929.94;5006982;28;20026;-63
2023/05/08 04:17:10;;;;;;;0.47;0.47;;;;;;;8.81;40.73;101926.63;5007237;28;20443;-63
2023/05/08 04:19:42;;;;;;;1.23;1.15;;;;;;;9.00;40.28;101921.88;5006737;28;20031;-63
2023/05/08 04:22:10;;;;;;;0.40;0.40;;;;;;;9.14;40.68;101928.25;5006767;28;20023;-63
2023/05/08 04:24:42;;;;;;;0.40;0.40;;;;;;;9.54;40.38;101925.63;5006838;28;20034;-63
2023/05/08 04:27:09;;;;;;;0.40;0.40;;;;;;;10.04;40.96;101917.91;4994164;28;20084;-62
2023/05/08 04:29:34;;;;;;;0.40;0.40;;;;;;;10.64;39.77;101918.09;5006333;28;20042;-63
2023/05/08 04:32:00;;;;;;;0.50;0.50;;;;;;;10.93;38.75;101908.13;5006506;28;20026;-63
2023/05/08 04:34:27;;;;;;;0.30;0.30;;;;;;;11.20;37.93;101915.41;5006351;28;20041;-64
2023/05/08 04:36:53;;;;;;;0.40;0.40;;;;;;;11.39;35.97;101910.44;5006580;28;20089;-64
2023/05/08 04:39:19;;;;;;;0.40;0.40;;;;;;;11.14;36.44;101907.53;5006760;28;20030;-62
2023/05/08 04:41:44;;;;;;;0.60;0.60;;;;;;;11.36;36.18;101913.00;5006375;28;20026;-63
2023/05/08 04:44:10;;;;;;;0.40;0.40;;;;;;;11.46;37.00;101909.69;5006727;28;20022;-65
2023/05/08 04:46:35;;;;;;;0.30;0.30;;;;;;;11.75;37.13;101916.94;5006218;28;20030;-63
2023/05/08 04:49:01;;;;;;;0.40;0.40;;;;;;;12.19;36.51;101916.56;5006043;28;20026;-65
2023/05/08 04:51:26;;;;;;;0.30;0.30;;;;;;;12.49;36.43;101910.69;5006253;28;20178;-64
2023/05/08 04:53:52;;;;;;;0.30;0.30;;;;;;;12.80;34.71;101919.59;5006295;28;20022;-64
2023/05/08 04:56:18;;;;;;;0.30;0.30;;;;;;;12.93;33.98;101904.91;5006122;28;20026;-65
2023/05/08 04:58:43;;;;;;;0.50;0.50;;;;;;;12.88;34.04;101916.19;5005907;28;20475;-65
2023/05/08 05:01:09;;;;;;;0.35;0.35;;;;;;;13.27;33.29;101924.22;5005964;28;20033;-67
2023/05/08 05:03:34;;;;;;;0.30;0.30;;;;;;;13.20;34.10;101904.19;5004357;28;20019;-66
2023/05/08 05:06:00;;;;;;;0.30;0.30;;;;;;;13.77;33.75;101926.16;5005762;28;20079;-65
2023/05/08 05:08:26;;;;;;;0.50;0.50;;;;;;;14.07;33.13;101913.19;5004337;28;20042;-65
2023/05/08 05:10:51;;;;;;;0.30;0.30;;;;;;;14.37;32.96;101896.66;5005813;28;20397;-68
2023/05/08 05:13:18;;;;;;;0.40;0.40;;;;;;;14.78;30.09;101908.78;5005600;28;20027;-66
2023/05/08 05:15:44;;;;;;;0.30;0.30;;;;;;;14.31;29.67;101909.72;5005714;28;20022;-67
2023/05/08 05:18:10;;;;;;;0.30;0.30;;;;;;;13.78;30.46;101904.44;5005581;28;20030;-70
2023/05/08 05:20:36;;;;;;;0.77;0.77;;;;;;;13.39;31.21;101920.81;5004879;28;20054;-70
2023/05/08 05:23:01;;;;;;;0.30;0.30;;;;;;;13.54;31.72;101919.16;5003991;28;20026;-69
2023/05/08 05:25:27;;;;;;;0.43;0.43;;;;;;;13.92;30.75;101914.91;5006050;28;20025;-70
2023/05/08 05:27:52;;;;;;;1.95;1.85;;;;;;;13.77;30.17;101926.16;5006088;28;20050;-68
2023/05/08 05:30:18;;;;;;;0.30;0.30;;;;;;;13.53;31.31;101919.16;5005290;28;20030;-68
2023/05/08 05:32:43;;;;;;;2.50;2.38;;;;;;;13.79;32.07;101914.00;5004861;28;20025;-66
2023/05/08 05:35:09;;;;;;;0.30;0.30;;;;;;;14.04;32.06;101902.75;5005528;28;20029;-66
2023/05/08 05:37:35;;;;;;;0.30;0.30;;;;;;;14.72;32.01;101922.75;5005459;28;20018;-66
2023/05/08 05:40:00;;;;;;;0.60;0.60;;;;;;;15.08;31.02;101918.34;5004146;28;20433;-67
2023/05/08 05:42:26;;;;;;;0.30;0.30;;;;;;;15.30;31.24;101920.03;5005116;28;20019;-66
2023/05/08 05:44:51;;;;;;;0.30;0.30;;;;;;;15.73;30.72;101918.94;5005240;28;20109;-68
2023/05/08 05:47:17;;;;;;;0.30;0.30;;;;;;;16.24;30.27;101920.38;4987787;28;20026;-66
2023/05/08 05:49:45;;;;;;;0.30;0.30;;;;;;;16.36;29.83;101919.38;5005108;28;20026;-68
2023/05/08 05:52:11;;;;;;;0.30;0.30;;;;;;;16.33;28.51;101912.44;5005026;28;20035;-66
2023/05/08 05:54:37;;;;;;;0.30;0.30;;;;;;;15.98;29.56;101916.19;5005238;28;20026;-67
2023/05/08 05:57:03;;;;;;;0.30;0.30;;;;;;;15.90;29.08;101915.34;5005157;28;20041;-67
2023/05/08 05:59:29;;;;;;;0.50;0.50;;;;;;;15.83;29.08;101918.00;5005219;28;20414;-66
2023/05/08 06:01:54;;;;;;;0.30;0.30;;;;;;;15.80;29.34;101923.25;5004852;28;20482;-67
2023/05/08 06:04:19;;;;;;;0.30;0.30;;;;;;;15.74;28.00;101911.06;5004920;28;20086;-67
2023/05/08 06:06:45;;;;;;;0.20;0.20;;;;;;;15.48;28.63;101904.22;5009976;23;20043;-69
2023/05/08 06:09:10;;;;;;;0.30;0.30;;;;;;;15.56;28.63;101917.28;5003724;28;20037;-68
2023/05/08 06:11:36;;;;;;;0.30;0.30;;;;;;;15.44;29.14;101925.19;4986875;28;20130;-69
2023/05/08 06:14:01;;;;;;;0.30;0.30;;;;;;;15.79;29.05;101912.78;5005207;28;20537;-69
2023/05/08 06:16:26;;;;;;;1.48;0.73;;;;;;;15.89;28.77;101904.00;5004841;28;20026;-69
2023/05/08 06:18:52;;;;;;;0.30;0.30;;;;;;;16.03;28.80;101911.78;5004615;28;20029;-68
2023/05/08 06:21:17;;;;;;;0.30;0.30;;;;;;;16.14;28.90;101902.97;5005202;28;20023;-68
2023/05/08 06:23:43;;;;;;;2.15;1.95;;;;;;;16.63;27.64;101904.28;5004890;28;20050;-67
2023/05/08 06:26:08;;;;;;;0.30;0.30;;;;;;;16.26;27.49;101902.91;5004612;28;20045;-68
2023/05/08 06:28:34;;;;;;;0.30;0.30;;;;;;;16.22;27.80;101903.78;5004963;28;20050;-68
2023/05/08 06:30:59;;;;;;;0.52;0.52;;;;;;;16.23;28.06;101900.28;5004612;28;20446;-69
2023/05/08 06:33:25;;;;;;;0.30;0.30;;;;;;;16.44;26.96;101899.22;5008996;23;20081;-66
2023/05/08 06:35:50;;;;;;;0.30;0.30;;;;;;;16.48;27.62;101898.31;5006624;23;20137;-68
2023/05/08 06:38:16;;;;;;;0.30;0.30;;;;;;;16.79;25.96;101905.00;5003689;28;20433;-67
2023/05/08 06:40:43;;;;;;;0.30;0.30;;;;;;;16.12;26.97;101892.50;5004703;28;20049;-66
2023/05/08 06:43:08;;;;;;;0.30;0.30;;;;;;;15.90;27.31;101892.63;5004462;28;20078;-66
2023/05/08 06:45:33;;;;;;;0.30;0.30;;;;;;;15.91;27.43;101897.00;5004859;28;20085;-67
2023/05/08 06:47:59;;;;;;;0.30;0.30;;;;;;;15.96;28.07;101907.44;4986747;28;20502;-66
2023/05/08 06:50:24;;;;;;;0.30;0.30;;;;;;;16.28;27.14;101900.25;5004811;28;20015;-68
2023/05/08 06:52:50;;;;;;;0.30;0.30;;;;;;;16.31;27.04;101887.97;5008545;28;20022;-67
2023/05/08 06:55:15;;;;;;;0.30;0.30;;;;;;;16.30;27.43;101899.34;5008875;28;20037;-67
2023/05/08 06:57:41;;;;;;;0.30;0.30;;;;;;;16.55;27.61;101904.38;5008623;28;20026;-66
2023/05/08 07:00:07;;;;;;;0.30;0.30;;;;;;;17.07;27.56;101899.47;5008691;28;20031;-67
2023/05/08 07:02:33;;;;;;;0.30;0.30;;;;;;;17.39;27.17;101892.09;5008493;28;20109;-67
2023/05/08 07:04:58;;;;;;;0.20;0.20;;;;;;;17.54;26.50;101896.25;5008116;28;20019;-68
2023/05/08 07:07:23;;;;;;;0.30;0.30;;;;;;;17.50;26.65;101891.97;5008092;28;20030;-66
2023/05/08 07:09:49;;;;;;;0.20;0.20;;;;;;;17.88;27.37;101879.16;5014207;23;20050;-65
2023/05/08 07:12:15;;;;;;;0.20;0.20;;;;;;;18.47;26.40;101872.06;4989217;28;20437;-66
2023/05/08 07:14:42;;;;;;;0.45;0.45;;;;;;;18.62;26.09;101872.69;5017355;23;20050;-70
2023/05/08 07:17:08;;;;;;;0.30;0.30;;;;;;;18.78;25.85;101875.88;4998348;23;20051;-67
2023/05/08 07:19:37;;;;;;;5.93;1.55;;;;;;;18.73;25.31;101867.22;5005934;28;20046;-66
2023/05/08 07:22:03;;;;;;;1.65;1.55;;;;;;;18.51;25.40;101879.03;5006472;28;20028;-67
2023/05/08 07:24:28;;;;;;;0.20;0.20;;;;;;;18.47;24.73;101877.31;5008151;28;20386;-67
2023/05/08 07:26:54;;;;;;;0.20;0.20;;;;;;;18.49;25.15;101872.91;5006233;28;20030;-67
2023/05/08 07:29:19;;;;;;;0.20;0.20;;;;;;;18.86;24.47;101868.72;5007047;28;20052;-68
2023/05/08 07:31:47;;;;;;;0.20;0.20;;;;;;;18.94;24.34;101865.94;5007718;28;20061;-66
2023/05/08 07:34:12;;;;;;;0.40;0.40;;;;;;;19.25;24.98;101873.19;5007738;28;20366;-66
2023/05/08 07:36:39;;;;;;;0.30;0.30;;;;;;;19.87;23.71;101865.66;5019978;23;20042;-68
2023/05/08 07:39:04;;;;;;;0.20;0.20;;;;;;;19.75;22.85;101866.81;5013214;23;20061;-66
2023/05/08 07:41:29;;;;;;;1.02;1.02;;;;;;;19.16;22.69;101868.13;5013545;23;20665;-66
2023/05/08 07:43:55;;;;;;;0.30;0.30;;;;;;;18.51;23.55;101871.13;5006516;28;20065;-66
2023/05/08 07:46:21;;;;;;;0.30;0.30;;;;;;;17.90;24.52;101864.25;4989804;28;20033;-66
2023/05/08 07:48:46;;;;;;;0.20;0.20;;;;;;;17.46;24.95;101866.63;5013970;23;20093;-67
2023/05/08 07:51:13;;;;;;;0.57;0.57;;;;;;;17.18;25.73;101873.13;5035442;23;20046;-73
2023/05/08 07:53:38;;;;;;;0.30;0.30;;;;;;;17.66;26.04;101870.72;5012301;23;20062;-66
2023/05/08 07:56:04;;;;;;;0.20;0.20;;;;;;;17.97;25.93;101880.78;4988804;28;20030;-67
2023/05/08 07:58:30;;;;;;;0.30;0.30;;;;;;;18.41;25.38;101877.44;5006872;28;20494;-67
2023/05/08 08:00:55;;;;;;;0.30;0.30;;;;;;;18.88;25.19;101873.94;4989943;28;20072;-66
2023/05/08 08:03:21;;;;;;;0.20;0.20;;;;;;;19.60;23.59;101864.56;5005934;28;20034;-65
2023/05/08 08:05:46;;;;;;;0.50;0.50;;;;;;;19.02;23.98;101882.44;5007324;28;20026;-68
2023/05/08 08:08:12;;;;;;;0.30;0.30;;;;;;;18.90;24.39;101865.09;5013253;23;20113;-68
2023/05/08 08:10:38;;;;;;;0.30;0.30;;;;;;;19.02;24.38;101877.16;5005788;28;20018;-67
2023/05/08 08:13:48;;;;;;;0.20;0.20;;;;;;;18.88;24.62;101879.22;5022725;23;20483;-68
2023/05/08 08:16:13;;;;;;;0.20;0.20;;;;;;;18.90;24.38;101880.03;4966403;29;20074;-67
2023/05/08 08:18:38;;;;;;;0.20;0.20;;;;;;;18.90;25.03;101880.91;4967349;29;20039;-67
2023/05/08 08:21:05;;;;;;;3.50;1.05;;;;;;;19.13;24.46;101876.09;4968394;29;20023;-68
2023/05/08 08:23:31;;;;;;;0.20;0.20;;;;;;;19.48;25.05;101882.38;4995983;23;20153;-67
2023/05/08 08:25:57;;;;;;;0.20;0.20;;;;;;;20.29;24.57;101879.59;5006040;28;20023;-67
2023/05/08 08:28:22;;;;;;;0.20;0.20;;;;;;;20.98;23.53;101881.28;4989476;28;20036;-67
2023/05/08 08:30:47;;;;;;;0.20;0.20;;;;;;;20.99;22.93;101879.53;5006876;28;20041;-67
2023/05/08 08:33:13;;;;;;;0.20;0.20;;;;;;;20.48;23.38;101884.41;5006429;28;20022;-69
2023/05/08 08:35:38;;;;;;;0.20;0.20;;;;;;;20.41;23.95;101879.28;5006894;28;20041;-67
2023/05/08 08:38:03;;;;;;;0.20;0.20;;;;;;;20.71;24.24;101881.13;5006663;28;20030;-67
2023/05/08 08:40:29;;;;;;;0.20;0.20;;;;;;;21.32;23.52;101883.81;5006702;28;20228;-66
2023/05/08 08:42:54;;;;;;;0.30;0.30;;;;;;;22.01;23.01;101880.78;5006379;28;20027;-67
2023/05/08 08:45:20;;;;;;;0.20;0.20;;;;;;;22.58;23.11;101878.88;5012250;23;20046;-67
2023/05/08 08:47:47;;;;;;;0.20;0.20;;;;;;;23.43;22.53;101887.28;5005322;28;20058;-66
2023/05/08 08:50:14;;;;;;;0.20;0.20;;;;;;;23.19;21.47;101889.94;5005843;28;20022;-66
2023/05/08 08:53:09;;;;;;;0.20;0.20;;;;;;;23.08;22.25;101882.41;5006462;28;20022;-66
2023/05/08 08:55:38;;;;;;;0.20;0.20;;;;;;;23.36;21.75;101883.97;5023900;23;20050;-68
2023/05/08 08:58:13;;;;;;;0.17;0.17;;;;;;;23.55;21.93;101885.94;4996370;23;20069;-68
2023/05/08 09:00:40;;;;;;;0.20;0.20;;;;;;;23.86;22.27;101887.34;4979281;23;20051;-66
2023/05/08 09:03:08;;;;;;;0.20;0.20;;;;;;;24.22;21.67;101892.03;4985311;28;20050;-69
2023/05/08 09:05:34;;;;;;;0.10;0.10;;;;;;;24.48;21.45;101894.50;4986724;28;20023;-66
2023/05/08 09:08:00;;;;;;;0.20;0.20;;;;;;;24.38;21.63;101894.03;4969087;28;20061;-67
2023/05/08 09:10:25;;;;;;;0.10;0.10;;;;;;;24.53;22.15;101886.31;4995700;23;20078;-68
2023/05/08 09:12:51;;;;;;;0.30;0.30;;;;;;;24.84;22.45;101898.25;5003761;28;20176;-69
2023/05/08 09:18:07;;;;;;;0.20;0.20;;;;;;;25.50;21.99;101890.78;5004342;28;20104;-68
2023/05/08 09:20:33;;;;;;;0.20;0.20;;;;;;;25.04;22.55;101889.38;5005152;28;20113;-70
2023/05/08 09:23:01;;;;;;;0.38;0.38;;;;;;;25.24;22.34;101890.25;5006161;28;20359;-67
2023/05/08 09:25:40;;;;;;;0.10;0.10;;;;;;;24.98;22.34;101884.34;5012436;23;20038;-67
2023/05/08 09:28:17;;;;;;;0.20;0.20;;;;;;;24.75;22.21;101884.44;5012018;23;20054;-67
2023/05/08 09:30:56;;;;;;;1.75;0.93;;;;;;;24.33;22.54;101882.78;5010965;23;20030;-73
2023/05/08 09:33:25;;;;;;;0.20;0.20;;;;;;;24.10;22.87;101873.97;5025802;23;20046;-66
2023/05/08 09:35:51;;;;;;;0.10;0.10;;;;;;;23.98;23.36;101862.94;5019067;23;20453;-67
2023/05/08 09:38:29;;;;;;;0.20;0.20;;;;;;;24.36;22.83;101866.72;5004737;28;20026;-67
2023/05/08 09:41:14;;;;;;;0.15;0.15;;;;;;;24.38;22.31;101859.53;5004436;28;20229;-67
2023/05/08 09:43:40;;;;;;;0.20;0.20;;;;;;;24.07;22.53;101860.84;5015705;23;20076;-67
2023/05/08 09:46:17;;;;;;;4.45;1.33;;;;;;;23.90;22.79;101859.75;5004198;28;20042;-68
2023/05/08 09:48:44;;;;;;;0.10;0.10;;;;;;;23.85;23.13;101867.06;5004915;28;20053;-68
2023/05/08 09:51:10;;;;;;;0.57;0.57;;;;;;;24.19;23.35;101864.78;5005290;28;20500;-67
2023/05/08 09:53:35;;;;;;;0.17;0.17;;;;;;;24.50;22.29;101853.72;5005321;28;20030;-66
2023/05/08 09:56:01;;;;;;;0.10;0.10;;;;;;;24.58;21.69;101863.97;5005274;28;20570;-70
2023/05/08 09:58:37;;;;;;;0.20;0.20;;;;;;;24.35;22.66;101857.88;4996811;23;20043;-60
2023/05/08 10:01:03;;;;;;;0.10;0.10;;;;;;;24.58;21.99;101860.44;5004288;28;20345;-61
2023/05/08 10:03:48;;;;;;;0.20;0.20;;;;;;;24.59;21.56;101856.84;5004529;28;20446;-60
2023/05/08 10:06:14;;;;;;;0.20;0.20;;;;;;;24.61;21.63;101855.88;5011167;23;20062;-61
2023/05/08 10:08:39;;;;;;;0.10;0.10;;;;;;;24.48;22.06;101852.91;5003659;28;20490;-61
2023/05/08 10:11:20;;;;;;;0.20;0.20;;;;;;;24.62;22.31;101846.09;5004843;28;20076;-63
2023/05/08 10:13:46;;;;;;;0.10;0.10;;;;;;;24.57;21.62;101848.97;5004852;28;20046;-63
2023/05/08 10:16:16;;;;;;;0.10;0.10;;;;;;;24.42;21.75;101842.56;5010893;23;20149;-64
2023/05/08 10:18:49;;;;;;;0.10;0.10;;;;;;;24.31;22.29;101845.69;5010637;23;20046;-70
2023/05/08 10:21:16;;;;;;;0.20;0.20;;;;;;;24.53;21.98;101842.06;4986164;28;20026;-71
2023/05/08 10:23:43;;;;;;;0.10;0.10;;;;;;;24.60;21.55;101838.19;5004603;28;20022;-72
2023/05/08 10:26:30;;;;;;;0.10;0.10;;;;;;;24.50;21.92;101847.53;4986721;28;20018;-71
2023/05/08 10:29:06;;;;;;;0.30;0.30;;;;;;;24.16;21.73;101841.03;4987134;28;20026;-71
2023/05/08 10:31:35;;;;;;;0.20;0.20;;;;;;;23.88;22.33;101841.25;5003737;28;20022;-70
2023/05/08 10:34:02;;;;;;;0.20;0.20;;;;;;;23.83;22.18;101847.69;4986735;28;20022;-69
2023/05/08 10:36:29;;;;;;;0.20;0.20;;;;;;;23.56;22.66;101845.25;5004461;28;20022;-72
2023/05/08 10:38:56;;;;;;;0.32;0.32;;;;;;;23.42;22.70;101843.16;5010744;23;20077;-66
2023/05/08 10:41:22;;;;;;;0.10;0.10;;;;;;;23.27;22.25;101840.16;5003497;28;20026;-67
2023/05/08 10:43:49;;;;;;;0.40;0.40;;;;;;;22.99;22.03;101841.22;5004330;28;20038;-65
2023/05/08 10:46:28;;;;;;;0.20;0.20;;;;;;;22.57;22.32;101824.22;5018165;23;20057;-65
2023/05/08 10:49:06;;;;;;;0.50;0.50;;;;;;;22.63;21.90;101832.84;5003161;28;20022;-64
2023/05/08 10:51:36;;;;;;;0.30;0.30;;;;;;;22.48;22.31;101821.00;5009944;23;20046;-70
2023/05/08 10:54:09;;;;;;;0.30;0.30;;;;;;;22.74;21.59;101828.94;5003447;28;20037;-72
2023/05/08 10:56:37;;;;;;;0.95;0.95;;;;;;;22.57;21.27;101824.22;4986758;28;20069;-71
2023/05/08 10:59:04;;;;;;;0.10;0.10;;;;;;;22.01;21.94;101814.69;5004576;28;20540;-70
2023/05/08 11:01:29;;;;;;;0.20;0.20;;;;;;;21.30;22.37;101826.66;5004422;28;20033;-70
2023/05/08 11:03:55;;;;;;;1.23;1.15;;;;;;;20.41;23.11;101820.38;5003720;28;20030;-73
2023/05/08 11:06:42;;;;;;;1.60;1.50;;;;;;;19.44;24.05;101821.00;5004210;28;20030;-72
2023/05/08 11:09:07;;;;;;;0.20;0.20;;;;;;;18.92;25.00;101823.84;5004058;28;20033;-72
2023/05/08 11:11:38;;;;;;;0.20;0.20;;;;;;;18.76;25.32;101815.41;5004009;28;20022;-72
2023/05/08 11:14:06;;;;;;;0.20;0.20;;;;;;;18.62;25.46;101806.94;5004084;28;20095;-72
2023/05/08 11:16:53;;;;;;;0.20;0.20;;;;;;;18.22;26.02;101809.44;5016581;23;20059;-70
2023/05/08 11:19:21;;;;;;;0.20;0.20;;;;;;;17.87;26.08;101798.63;5002379;23;20113;-63
2023/05/08 11:24:46;;;;;;;0.20;0.20;;;;;;;17.21;26.94;101799.59;5004362;23;20137;-63
2023/05/08 11:27:11;;;;;;;0.30;0.30;;;;;;;16.87;27.57;101807.03;5002667;28;20043;-62
2023/05/08 11:29:37;;;;;;;2.10;1.75;;;;;;;16.62;27.93;101797.69;5002874;28;20088;-63
2023/05/08 11:34:41;;;;;;;0.30;0.30;;;;;;;16.07;28.20;101795.63;5008339;23;20053;-62
2023/05/08 11:37:20;;;;;;;0.32;0.32;;;;;;;15.87;28.46;101790.53;5003788;28;20038;-61
2023/05/08 11:39:47;;;;;;;0.20;0.20;;;;;;;15.79;28.74;101798.44;5007442;28;20027;-62
2023/05/08 11:42:24;;;;;;;0.30;0.30;;;;;;;15.77;28.37;101789.72;4989900;28;20054;-63
2023/05/08 11:47:35;;;;;;;0.20;0.20;;;;;;;15.70;28.22;101780.22;5012766;23;20050;-67